^^
Grace C. Lehan Memorial Weather Station Historical Data
Daily Summary for May 2, 2021 Units:  English    Metric   Both
Daily Weekly Monthly Yearly
  High: Low: Average:
Temperature: 50.9 °F 33.4 °F 38.6 °F
Dew Point: 44.7 °F 30 °F 34.9 °F
Humidity: 97% 67.3% 87%
Wind Speed: 12.9mph 0mph 1.8mph
Wind Gust: 27mph - -
Wind- - NW
Pressure: 30.08 in 29.68 in -
Precipitation: 0.23 in    
 
 
Tabular Data for May 2, 2021
Time Temperature Dew Point Pressure Wind Wind Speed Wind Gust Humidity Rainfall Rate (Hourly) solar
00:04 33.7 °F 31.9 °F 30.06 in Calm     93% 0.07 in 0 W/m2
00:09 33.7 °F 31.9 °F 30.05 in Calm     93% 0.01 in 0 W/m2
00:14 33.8 °F 32.1 °F 30.03 in Calm     93.3% 0.02 in 0 W/m2
00:19 33.8 °F 32.3 °F 30.03 in Calm     94% 0.02 in 0 W/m2
00:24 33.8 °F 32.2 °F 30.03 in Calm     94% 0.03 in 0 W/m2
00:29 33.8 °F 32.3 °F 30.03 in Calm     94% 0.04 in 0 W/m2
00:34 33.8 °F 32.3 °F 30.02 in Calm     94% 0.04 in 0 W/m2
00:39 33.9 °F 32.3 °F 30.02 in Calm     94% 0.05 in 0 W/m2
00:44 33.9 °F 32.4 °F 30.02 in Calm     94% 0.05 in 0 W/m2
00:49 33.9 °F 32.4 °F 30.00 in Calm     94% 0.06 in 0 W/m2
00:54 33.9 °F 32.4 °F 30.00 in Calm     94% 0.06 in 0 W/m2
00:59 33.9 °F 32.4 °F 30.00 in Calm     94% 0.07 in 0 W/m2
01:04 34 °F 32.4 °F 30.00 in Calm     94% 0.07 in 0 W/m2
01:09 34 °F 32.5 °F 29.99 in Calm     94% 0.07 in 0 W/m2
01:14 34 °F 32.5 °F 29.98 in Calm     94% 0.08 in 0 W/m2
01:19 34 °F 32.4 °F 29.98 in Calm     94% 0.08 in 0 W/m2
01:24 34 °F 32.5 °F 29.98 in Calm     94% 0.09 in 0 W/m2
01:29 34 °F 32.5 °F 29.98 in Calm     94% 0.10 in 0 W/m2
01:34 34 °F 32.5 °F 29.98 in Calm     94% 0.10 in 0 W/m2
01:39 34 °F 32.5 °F 29.98 in Calm     94% 0.07 in 0 W/m2
01:44 34 °F 32.5 °F 29.97 in Calm     94% 0.07 in 0 W/m2
01:49 34 °F 32.5 °F 29.97 in Calm     94% 0.08 in 0 W/m2
01:54 34.1 °F 32.6 °F 29.96 in Calm     94% 0.08 in 0 W/m2
01:59 34.1 °F 32.6 °F 29.96 in Calm     94% 0.08 in 0 W/m2
02:04 34.1 °F 32.6 °F 29.96 in Calm     94% 0.08 in 0 W/m2
02:09 34.1 °F 32.6 °F 29.95 in Calm     94% 0.06 in 0 W/m2
02:14 34 °F 32.5 °F 29.94 in Calm     94% 0.06 in 0 W/m2
02:19 34 °F 32.5 °F 29.93 in Calm     94% 0.06 in 0 W/m2
02:24 34 °F 32.5 °F 29.93 in Calm     94% 0.06 in 0 W/m2
02:29 34.1 °F 32.8 °F 29.92 in Calm     95% 0.06 in 0 W/m2
02:34 34.1 °F 32.8 °F 29.92 in Calm     95% 0.06 in 0 W/m2
02:39 34.1 °F 32.8 °F 29.92 in Calm     95% 0.04 in 0 W/m2
02:44 34.1 °F 32.8 °F 29.91 in Calm     95% 0.04 in 0 W/m2
02:49 34.1 °F 32.8 °F 29.91 in Calm     95% 0.04 in 0 W/m2
02:54 34.1 °F 32.8 °F 29.90 in Calm     95% 0.04 in 0 W/m2
02:59 34.1 °F 32.8 °F 29.90 in Calm     95% 0.05 in 0 W/m2
03:04 34.2 °F 32.9 °F 29.89 in Calm     95% 0.05 in 0 W/m2
03:09 34.2 °F 32.9 °F 29.89 in Calm     95% 0.04 in 0 W/m2
03:14 34.2 °F 32.9 °F 29.88 in Calm     95% 0.04 in 0 W/m2
03:19 34.2 °F 32.9 °F 29.87 in Calm     95% 0.05 in 0 W/m2
03:24 34.3 °F 33 °F 29.86 in Calm     95% 0.05 in 0 W/m2
03:29 34.3 °F 33 °F 29.85 in Calm     95% 0.05 in 0 W/m2
03:34 34.3 °F 33 °F 29.85 in Calm     95% 0.05 in 0 W/m2
03:39 34.3 °F 33 °F 29.84 in Calm     95% 0.04 in 0 W/m2
03:44 34.3 °F 33 °F 29.83 in Calm     95% 0.05 in 0 W/m2
03:49 34.3 °F 33 °F 29.83 in Calm     95% 0.05 in 0 W/m2
03:54 34.3 °F 33 °F 29.82 in Calm     95% 0.06 in 0 W/m2
03:59 34.4 °F 33.1 °F 29.82 in Calm     95% 0.06 in 0 W/m2
04:04 34.4 °F 33.1 °F 29.81 in Calm     95% 0.07 in 0 W/m2
04:09 34.4 °F 33.1 °F 29.81 in Calm     95% 0.07 in 0 W/m2
04:14 34.5 °F 33.2 °F 29.80 in Calm     95% 0.07 in 0 W/m2
04:19 34.5 °F 33.2 °F 29.80 in Calm     95% 0.08 in 0 W/m2
04:24 34.5 °F 33.2 °F 29.80 in Calm     95% 0.08 in 0 W/m2
04:29 34.5 °F 33.2 °F 29.79 in Calm     95% 0.08 in 0 W/m2
04:34 34.5 °F 33.2 °F 29.78 in Calm     95% 0.08 in 0 W/m2
04:39 34.5 °F 33.2 °F 29.77 in Calm     95% 0.04 in 0 W/m2
04:44 34.5 °F 33.2 °F 29.77 in Calm     95% 0.05 in 0 W/m2
04:49 34.5 °F 33.2 °F 29.76 in Calm     95% 0.05 in 0 W/m2
04:54 34.5 °F 33.2 °F 29.75 in Calm     95% 0.05 in 0 W/m2
04:59 34.6 °F 33.3 °F 29.75 in Calm     95% 0.05 in 0 W/m2
05:04 34.6 °F 33.3 °F 29.74 in Calm     95% 0.05 in 0 W/m2
05:09 34.6 °F 33.3 °F 29.73 in Calm     95% 0.01 in 0 W/m2
05:14 34.6 °F 33.3 °F 29.73 in Calm     95% 0.01 in 0 W/m2
05:19 34.7 °F 33.4 °F 29.73 in Calm     95% 0.01 in 0 W/m2
05:24 34.7 °F 33.4 °F 29.72 in Calm     95% 0.01 in 0 W/m2
05:29 34.7 °F 33.6 °F 29.72 in Calm     95.5% 0.01 in 0 W/m2
05:34 34.8 °F 33.8 °F 29.72 in Calm     96% 0.02 in 0 W/m2
05:39 34.9 °F 33.9 °F 29.72 in Calm     96% 0.02 in 0 W/m2
05:44 35 °F 33.9 °F 29.72 in Calm     95.5% 0.02 in 0 W/m2
05:49 35.1 °F 33.8 °F 29.72 in Calm     95% 0.02 in 0 W/m2
05:54 35.2 °F 33.9 °F 29.73 in NNW 0.8 mph 5 mph 95% 0.02 in 0 W/m2
05:59 35.2 °F 34 °F 29.73 in NNW 1.1 mph 5 mph 95.3% 0.02 in 0 W/m2
06:04 35.3 °F 34.2 °F 29.72 in NNW 0.6 mph 5 mph 95.9% 0.02 in 0 W/m2
06:09 35.3 °F 34.3 °F 29.71 in NNW 2.1 mph 6 mph 96% 0.01 in 0 W/m2
06:14 35.3 °F 34.3 °F 29.71 in NNW 1.8 mph 6 mph 96% 0.01 in 0 W/m2
06:19 35.4 °F 34.4 °F 29.71 in NNW 0.3 mph 6 mph 96% 0.02 in 0 W/m2
06:24 35.4 °F 34.4 °F 29.70 in NNW 0.7 mph 6 mph 96% 0.02 in 0 W/m2
06:29 35.5 °F 34.4 °F 29.70 in NNW 0.6 mph 6 mph 96% 0.02 in 0 W/m2
06:34 35.5 °F 34.5 °F 29.69 in NNW 1.1 mph 6 mph 96% 0.02 in 0 W/m2
06:39 35.5 °F 34.5 °F 29.69 in NNW 0.8 mph 6 mph 96% 0.02 in 0 W/m2
06:44 35.5 °F 34.5 °F 29.69 in NNW 1.5 mph 6 mph 96% 0.02 in 0 W/m2
06:49 35.5 °F 34.5 °F 29.69 in NNW 1.1 mph 6 mph 96% 0.02 in 0 W/m2
06:54 35.5 °F 34.5 °F 29.70 in NNW 1.8 mph 6 mph 96% 0.02 in 0 W/m2
06:59 35.5 °F 34.5 °F 29.70 in NNW 1.1 mph 8 mph 96% 0.02 in 0 W/m2
07:04 35.5 °F 34.5 °F 29.70 in NW 0.9 mph 8 mph 96% 0.02 in 0 W/m2
07:09 35.6 °F 34.6 °F 29.70 in Calm   6 mph 96% 0.01 in 0 W/m2
07:14 35.6 °F 34.6 °F 29.70 in NW 0.7 mph 6 mph 96% 0.01 in 0 W/m2
07:19 35.6 °F 34.6 °F 29.70 in NW 0.5 mph 6 mph 96% 0.01 in 0 W/m2
07:24 35.7 °F 34.7 °F 29.70 in NW 0.7 mph 6 mph 96% 0.01 in 0 W/m2
07:29 35.7 °F 34.7 °F 29.71 in NW 0.5 mph 6 mph 96% 0.01 in 0 W/m2
07:34 35.8 °F 34.8 °F 29.70 in Calm   6 mph 96% 0.01 in 0 W/m2
07:39 35.8 °F 34.8 °F 29.71 in Calm   1 mph 96% 0.00 in 0 W/m2
07:44 35.9 °F 34.9 °F 29.69 in Calm   1 mph 96% 0.00 in 0 W/m2
07:49 35.9 °F 34.9 °F 29.71 in Calm   1 mph 96% 0.00 in 5 W/m2
07:54 36 °F 35 °F 29.71 in Calm   1 mph 96% 0.00 in 5 W/m2
07:59 36 °F 35 °F 29.72 in Calm   1 mph 96% 0.00 in 7 W/m2
08:00 36.1 °F 35.1 °F 29.71 in Calm   1 mph 96% 0.00 in 7 W/m2
08:09 36.1 °F 35.1 °F 29.71 in Calm     96% 0.00 in 14 W/m2
08:14 36.1 °F 35.1 °F 29.70 in Calm     96% 0.00 in 14 W/m2
08:19 36.1 °F 35.1 °F 29.70 in Calm     96% 0.00 in 21 W/m2
08:24 36.1 °F 35.1 °F 29.70 in Calm     96% 0.00 in 26 W/m2
08:29 36.1 °F 35.1 °F 29.70 in Calm     96% 0.00 in 28 W/m2
08:34 36.2 °F 35.1 °F 29.70 in Calm     96% 0.00 in 26 W/m2
08:39 36.2 °F 35.2 °F 29.70 in Calm     96% 0.00 in 46 W/m2
08:44 36.3 °F 35.2 °F 29.70 in Calm     96% 0.00 in 53 W/m2
08:49 36.3 °F 35.3 °F 29.70 in Calm     96% 0.00 in 26 W/m2
08:54 36.3 °F 35.3 °F 29.69 in NW 0.2 mph 4 mph 96% 0.00 in 81 W/m2
08:59 36.4 °F 35.4 °F 29.69 in NW 0.6 mph 4 mph 96% 0.00 in 98 W/m2
09:04 36.5 °F 35.5 °F 29.68 in WNW 0.1 mph 4 mph 96% 0.00 in 121 W/m2
09:09 36.7 °F 35.6 °F 29.68 in WNW 0.5 mph 4 mph 96% 0.00 in 121 W/m2
09:14 36.9 °F 35.8 °F 29.69 in WNW 0.2 mph 4 mph 96% 0.00 in 146 W/m2
09:19 37 °F 36 °F 29.69 in Calm   4 mph 96% 0.00 in 111 W/m2
09:24 37.1 °F 36.1 °F 29.69 in WNW 0.1 mph 4 mph 96% 0.00 in 69 W/m2
09:29 37.3 °F 36.2 °F 29.69 in Calm   4 mph 96% 0.00 in 86 W/m2
09:34 37.4 °F 36.4 °F 29.69 in Calm   4 mph 96% 0.00 in 100 W/m2
09:39 37.7 °F 36.6 °F 29.69 in Calm     96% 0.00 in 91 W/m2
09:44 38 °F 36.9 °F 29.69 in Calm     96% 0.00 in 74 W/m2
09:49 38 °F 37 °F 29.69 in Calm     96% 0.00 in 88 W/m2
09:54 38 °F 37 °F 29.69 in Calm     96% 0.00 in 91 W/m2
09:59 38 °F 37 °F 29.69 in Calm     96% 0.00 in 77 W/m2
10:04 38.1 °F 37.1 °F 29.69 in Calm     96% 0.00 in 97 W/m2
10:09 38.3 °F 37.2 °F 29.69 in Calm     96% 0.00 in 118 W/m2
10:14 38.6 °F 37.5 °F 29.68 in Calm     96% 0.00 in 109 W/m2
10:19 38.8 °F 37.7 °F 29.68 in Calm     96% 0.00 in 295 W/m2
10:24 39.3 °F 38.3 °F 29.69 in Calm     96.4% 0.00 in 404 W/m2
10:29 40 °F 39.3 °F 29.69 in Calm     97% 0.00 in 404 W/m2
10:34 40.6 °F 39.8 °F 29.70 in WNW 0.3 mph 3 mph 97% 0.00 in 141 W/m2
10:39 40.9 °F 40.1 °F 29.70 in Calm   3 mph 97% 0.00 in 121 W/m2
10:44 41.1 °F 40.3 °F 29.71 in WNW 0.1 mph 3 mph 97% 0.00 in 144 W/m2
10:49 41.4 °F 40.6 °F 29.70 in WNW 1 mph 5 mph 97% 0.00 in 149 W/m2
10:54 41.7 °F 40.9 °F 29.70 in WNW 0.6 mph 5 mph 97% 0.00 in 139 W/m2
10:59 42.3 °F 41.5 °F 29.70 in WNW 0.9 mph 5 mph 97% 0.00 in 218 W/m2
11:04 43.1 °F 42.3 °F 29.70 in WNW 0.6 mph 4 mph 97% 0.00 in 223 W/m2
11:09 43.8 °F 43 °F 29.69 in WNW 0.5 mph 4 mph 97% 0.00 in 163 W/m2
11:14 44.5 °F 43.7 °F 29.70 in WNW 0.5 mph 4 mph 97% 0.00 in 202 W/m2
11:19 44.7 °F 43.9 °F 29.70 in WNW 0.3 mph 4 mph 97% 0.00 in 83 W/m2
11:24 44.8 °F 44 °F 29.70 in Calm   4 mph 97% 0.00 in 65 W/m2
11:29 44.9 °F 44.1 °F 29.70 in Calm   4 mph 97% 0.00 in 137 W/m2
11:34 45.2 °F 44.3 °F 29.70 in Calm   4 mph 96.6% 0.00 in 139 W/m2
11:39 45.4 °F 44.3 °F 29.70 in Calm     96% 0.00 in 114 W/m2
11:44 45.4 °F 44.2 °F 29.70 in Calm     95.4% 0.00 in 141 W/m2
11:49 45.4 °F 43.9 °F 29.69 in Calm     94.4% 0.00 in 141 W/m2
11:54 45.5 °F 43.7 °F 29.70 in Calm     93.4% 0.00 in 116 W/m2
11:59 45.9 °F 44 °F 29.70 in Calm   1 mph 93.2% 0.00 in 47 W/m2
12:04 46.5 °F 44.3 °F 29.69 in Calm     92% 0.00 in 417 W/m2
12:09 46.7 °F 44.4 °F 29.69 in WNW 1 mph 5 mph 91.7% 0.00 in 424 W/m2
12:14 47.2 °F 44.6 °F 29.69 in WNW 4.2 mph 14 mph 90.7% 0.00 in 385 W/m2
12:19 47.6 °F 44.3 °F 29.69 in NW 4.4 mph 16 mph 88.4% 0.00 in 431 W/m2
12:24 48 °F 44.3 °F 29.70 in WNW 3.8 mph 16 mph 87% 0.00 in 348 W/m2
12:29 48.3 °F 44.7 °F 29.70 in NW 5.7 mph 16 mph 87.3% 0.00 in 100 W/m2
12:34 48.6 °F 44 °F 29.70 in WNW 5.9 mph 16 mph 84.1% 0.00 in 81 W/m2
12:39 48.7 °F 43.7 °F 29.70 in West 8.2 mph 14 mph 82.8% 0.00 in 364 W/m2
12:44 48.9 °F 43.6 °F 29.69 in WNW 6.2 mph 14 mph 82% 0.00 in 364 W/m2
12:49 49.3 °F 44 °F 29.70 in WNW 3.7 mph 14 mph 81.7% 0.00 in 519 W/m2
12:54 49.9 °F 44.1 °F 29.70 in WNW 6.9 mph 19 mph 80.3% 0.00 in 466 W/m2
12:59 50.3 °F 43.4 °F 29.71 in WNW 9.3 mph 25 mph 77% 0.00 in 343 W/m2
13:04 50.5 °F 43 °F 29.71 in WNW 8.7 mph 25 mph 75.1% 0.00 in 288 W/m2
13:09 50.8 °F 43.5 °F 29.71 in WNW 3.8 mph 21 mph 75.8% 0.00 in 274 W/m2
13:14 50.9 °F 43 °F 29.72 in WNW 10.9 mph 27 mph 74.4% 0.00 in 114 W/m2
13:19 50.3 °F 41.7 °F 29.72 in WNW 10.2 mph 27 mph 72.1% 0.00 in 98 W/m2
13:24 49.7 °F 41.7 °F 29.73 in NW 4.4 mph 27 mph 73.8% 0.00 in 139 W/m2
13:29 49.3 °F 41.1 °F 29.73 in NW 8.5 mph 27 mph 73.4% 0.00 in 139 W/m2
13:34 48.9 °F 40.7 °F 29.73 in NW 5.4 mph 27 mph 73.1% 0.00 in 366 W/m2
13:39 48.8 °F 40.6 °F 29.74 in WNW 8.5 mph 20 mph 73.3% 0.00 in 149 W/m2
13:44 48.8 °F 40.6 °F 29.74 in NW 5.7 mph 20 mph 73.1% 0.00 in 274 W/m2
13:49 48.9 °F 40.3 °F 29.75 in NW 8.2 mph 20 mph 72.2% 0.00 in 135 W/m2
13:54 48.5 °F 39.6 °F 29.75 in NW 10.7 mph 23 mph 71% 0.00 in 186 W/m2
13:59 48.1 °F 39.3 °F 29.76 in NW 8 mph 23 mph 71.5% 0.00 in 181 W/m2
14:04 47.8 °F 39.1 °F 29.77 in NW 7.6 mph 23 mph 71.7% 0.00 in 107 W/m2
14:09 47.7 °F 39 °F 29.78 in NW 10.2 mph 21 mph 71.8% 0.00 in 348 W/m2
14:14 47.7 °F 38.9 °F 29.78 in NW 7.5 mph 21 mph 71.3% 0.00 in 336 W/m2
14:19 47.6 °F 38.7 °F 29.79 in NW 7.2 mph 21 mph 71% 0.00 in 171 W/m2
14:24 47.5 °F 38.6 °F 29.79 in NW 8.1 mph 21 mph 71% 0.00 in 162 W/m2
14:29 47.5 °F 38.6 °F 29.80 in NW 5.4 mph 21 mph 71.2% 0.00 in 144 W/m2
14:34 47.5 °F 38.4 °F 29.80 in NW 10 mph 21 mph 70.4% 0.00 in 195 W/m2
14:39 47.4 °F 37.8 °F 29.80 in NW 7.4 mph 21 mph 69.1% 0.00 in 199 W/m2
14:44 47.3 °F 37.4 °F 29.81 in NW 10.5 mph 24 mph 68.4% 0.00 in 67 W/m2
14:49 47 °F 37 °F 29.82 in NW 5.7 mph 24 mph 68% 0.00 in 97 W/m2
14:54 46.8 °F 36.8 °F 29.82 in NW 4.7 mph 24 mph 68.2% 0.00 in 100 W/m2
14:59 46.7 °F 37.1 °F 29.83 in WNW 6.8 mph 24 mph 69% 0.00 in 77 W/m2
15:04 46.5 °F 36.4 °F 29.83 in NW 10.7 mph 24 mph 67.5% 0.00 in 77 W/m2
15:09 46.2 °F 36 °F 29.83 in NW 8.8 mph 23 mph 67.3% 0.00 in 84 W/m2
15:14 46 °F 35.9 °F 29.84 in NW 7 mph 23 mph 67.6% 0.00 in 84 W/m2
15:19 45.9 °F 36.3 °F 29.84 in NW 4.4 mph 23 mph 68.9% 0.00 in 70 W/m2
15:24 45.8 °F 36.4 °F 29.85 in NW 5 mph 23 mph 69.4% 0.00 in 51 W/m2
15:29 45.6 °F 35.9 °F 29.86 in NW 5.6 mph 23 mph 68.5% 0.00 in 44 W/m2
15:34 45.3 °F 35.5 °F 29.86 in NW 6 mph 23 mph 68.2% 0.00 in 33 W/m2
15:39 45.1 °F 35.2 °F 29.86 in NW 6 mph 14 mph 68% 0.00 in 26 W/m2
15:44 44.7 °F 35 °F 29.86 in NW 7.2 mph 16 mph 68.5% 0.00 in 18 W/m2
15:49 44.3 °F 34.8 °F 29.87 in NW 10.6 mph 20 mph 69% 0.00 in 16 W/m2
15:54 44 °F 34.5 °F 29.87 in NW 8.3 mph 20 mph 69% 0.00 in 14 W/m2
15:59 43.8 °F 34.6 °F 29.87 in NW 7.1 mph 20 mph 69.9% 0.00 in 14 W/m2
16:00 43.7 °F 34.6 °F 29.87 in NW 1 mph 20 mph 70% 0.00 in 12 W/m2
16:09 43.4 °F 34.2 °F 29.88 in NW 8.5 mph 19 mph 70% 0.00 in 11 W/m2
16:14 43.2 °F 34.1 °F 29.88 in NW 6.8 mph 19 mph 70% 0.00 in 9 W/m2
16:19 43 °F 34.2 °F 29.88 in NW 8.4 mph 19 mph 70.9% 0.00 in 5 W/m2
16:24 42.8 °F 34 °F 29.88 in NW 10.7 mph 19 mph 71% 0.00 in 0 W/m2
16:29 42.6 °F 33.9 °F 29.88 in NW 12.9 mph 22 mph 71% 0.00 in 0 W/m2
16:34 42.4 °F 33.7 °F 29.88 in NW 9.3 mph 22 mph 71% 0.00 in 0 W/m2
16:39 42.3 °F 33.8 °F 29.89 in WNW 5.7 mph 20 mph 71.5% 0.00 in 0 W/m2
16:44 42.2 °F 33.7 °F 29.90 in NW 7.7 mph 20 mph 71.8% 0.00 in 0 W/m2
16:49 42 °F 33.8 °F 29.90 in WNW 3.9 mph 20 mph 72.2% 0.00 in 0 W/m2
16:54 41.9 °F 33.8 °F 29.90 in WNW 5 mph 20 mph 72.8% 0.00 in 0 W/m2
16:59 41.7 °F 33.7 °F 29.90 in WNW 6.8 mph 20 mph 72.9% 0.00 in 0 W/m2
17:04 41.5 °F 33.5 °F 29.91 in WNW 6.8 mph 20 mph 73% 0.00 in 0 W/m2
17:09 41.3 °F 33.5 °F 29.92 in NW 4.2 mph 14 mph 73.3% 0.00 in 0 W/m2
17:14 41.2 °F 33.5 °F 29.92 in WNW 4.5 mph 14 mph 74% 0.00 in 0 W/m2
17:19 41 °F 33.4 °F 29.92 in WNW 7.3 mph 14 mph 74% 0.00 in 0 W/m2
17:24 41 °F 33.3 °F 29.93 in WNW 6.2 mph 14 mph 74% 0.00 in 0 W/m2
17:29 40.9 °F 33.3 °F 29.93 in WNW 4.6 mph 14 mph 74% 0.00 in 0 W/m2
17:34 40.8 °F 33.4 °F 29.93 in WNW 8.9 mph 14 mph 74.8% 0.00 in 0 W/m2
17:39 40.7 °F 33.4 °F 29.93 in WNW 4.3 mph 14 mph 75% 0.00 in 0 W/m2
17:44 40.6 °F 33.3 °F 29.94 in WNW 2.2 mph 14 mph 75% 0.00 in 0 W/m2
17:49 40.4 °F 33.1 °F 29.95 in NW 1.6 mph 14 mph 75% 0.00 in 0 W/m2
17:54 40.3 °F 33.3 °F 29.95 in WNW 2.5 mph 14 mph 76% 0.00 in 0 W/m2
17:59 40.1 °F 33.2 °F 29.95 in WNW 1.9 mph 14 mph 76% 0.00 in 0 W/m2
18:04 40 °F 33.1 °F 29.96 in WNW 1.2 mph 14 mph 76% 0.00 in 0 W/m2
18:09 39.9 °F 33 °F 29.96 in NNW 0.4 mph 6 mph 76% 0.00 in 0 W/m2
18:14 39.8 °F 32.9 °F 29.96 in Calm   6 mph 76% 0.00 in 0 W/m2
18:19 39.7 °F 32.8 °F 29.96 in NNW 0.1 mph 6 mph 76% 0.00 in 0 W/m2
18:24 39.6 °F 33 °F 29.97 in NNW 0.7 mph 6 mph 77% 0.00 in 0 W/m2
18:29 39.4 °F 32.8 °F 29.97 in NNW 1.4 mph 6 mph 77% 0.00 in 0 W/m2
18:34 39.3 °F 32.9 °F 29.98 in NNW 0.4 mph 6 mph 77.6% 0.00 in 0 W/m2
18:39 39.2 °F 32.9 °F 29.98 in NW 1 mph 7 mph 78% 0.00 in 0 W/m2
18:44 39.1 °F 32.9 °F 29.98 in NW 0.5 mph 7 mph 78% 0.00 in 0 W/m2
18:49 39.1 °F 32.8 °F 29.98 in NW 0.1 mph 7 mph 78% 0.00 in 0 W/m2
18:54 38.9 °F 32.7 °F 29.99 in Calm   7 mph 78% 0.00 in 0 W/m2
18:59 38.8 °F 32.6 °F 29.99 in NW 0.2 mph 7 mph 78% 0.00 in 0 W/m2
19:04 38.7 °F 32.7 °F 29.99 in NW 0.5 mph 7 mph 78.7% 0.00 in 0 W/m2
19:09 38.6 °F 32.6 °F 29.99 in NW 0.1 mph 3 mph 79% 0.00 in 0 W/m2
19:14 38.4 °F 32.5 °F 29.99 in NW 0.3 mph 3 mph 79% 0.00 in 0 W/m2
19:19 38.3 °F 32.4 °F 30.00 in Calm   3 mph 79% 0.00 in 0 W/m2
19:24 38.2 °F 32.4 °F 30.00 in Calm   3 mph 79.6% 0.00 in 0 W/m2
19:29 38 °F 32.4 °F 30.00 in Calm   3 mph 80% 0.00 in 0 W/m2
19:34 37.8 °F 32.2 °F 30.01 in Calm   3 mph 80% 0.00 in 0 W/m2
19:39 37.5 °F 32.1 °F 30.01 in Calm     80.5% 0.00 in 0 W/m2
19:44 37.5 °F 32.2 °F 30.01 in Calm     81% 0.00 in 0 W/m2
19:49 37.4 °F 32.1 °F 30.02 in Calm     81% 0.00 in 0 W/m2
19:54 37.2 °F 32 °F 30.01 in NW 0.4 mph 2 mph 81% 0.00 in 0 W/m2
19:59 37.1 °F 31.8 °F 30.01 in NW 0.2 mph 3 mph 81% 0.00 in 0 W/m2
20:00 37.1 °F 31.8 °F 30.01 in Calm   3 mph 81% 0.00 in 0 W/m2
20:09 37 °F 32 °F 30.02 in Calm     82% 0.00 in 0 W/m2
20:14 36.9 °F 32 °F 30.02 in NW 0.4 mph 4 mph 82% 0.00 in 0 W/m2
20:19 36.8 °F 31.9 °F 30.02 in NW 0.4 mph 4 mph 82% 0.00 in 0 W/m2
20:24 36.7 °F 31.8 °F 30.02 in NW 0.7 mph 4 mph 82.1% 0.00 in 0 W/m2
20:29 36.6 °F 32 °F 30.02 in NW 0.3 mph 4 mph 83% 0.00 in 0 W/m2
20:34 36.6 °F 31.9 °F 30.02 in NW 1.4 mph 6 mph 83% 0.00 in 0 W/m2
20:39 36.5 °F 31.8 °F 30.02 in NW 0.9 mph 6 mph 83% 0.00 in 0 W/m2
20:44 36.5 °F 31.8 °F 30.02 in Calm   6 mph 83% 0.00 in 0 W/m2
20:49 36.4 °F 31.7 °F 30.02 in NW 1.5 mph 6 mph 83% 0.00 in 0 W/m2
20:54 36.4 °F 31.7 °F 30.02 in NW 1.3 mph 6 mph 83% 0.00 in 0 W/m2
20:59 36.4 °F 31.7 °F 30.02 in NW 0.8 mph 6 mph 83% 0.00 in 0 W/m2
21:04 36.4 °F 31.7 °F 30.03 in Calm   6 mph 83% 0.00 in 0 W/m2
21:09 36.3 °F 31.7 °F 30.03 in NW 0.4 mph 3 mph 83% 0.00 in 0 W/m2
21:14 36.3 °F 31.6 °F 30.03 in Calm   3 mph 83% 0.00 in 0 W/m2
21:19 36.2 °F 31.5 °F 30.03 in Calm   3 mph 83% 0.00 in 0 W/m2
21:24 36 °F 31.4 °F 30.04 in Calm   3 mph 83% 0.00 in 0 W/m2
21:29 35.9 °F 31.3 °F 30.04 in Calm   3 mph 83.1% 0.00 in 0 W/m2
21:34 35.7 °F 31.4 °F 30.04 in NW 0.5 mph 4 mph 84% 0.00 in 0 W/m2
21:39 35.6 °F 31.3 °F 30.04 in NW 0.7 mph 4 mph 84% 0.00 in 0 W/m2
21:44 35.5 °F 31.1 °F 30.04 in NW 0.4 mph 4 mph 84% 0.00 in 0 W/m2
21:49 35.3 °F 31 °F 30.04 in NW 1.4 mph 4 mph 84% 0.00 in 0 W/m2
21:54 35.2 °F 31.1 °F 30.04 in NW 2.3 mph 6 mph 84.6% 0.00 in 0 W/m2
21:59 35.2 °F 31.1 °F 30.05 in NW 3.3 mph 7 mph 85% 0.00 in 0 W/m2
22:04 35.1 °F 31.1 °F 30.05 in WNW 2.2 mph 7 mph 85% 0.00 in 0 W/m2
22:09 35.1 °F 31.1 °F 30.05 in WNW 0.1 mph 5 mph 85% 0.00 in 0 W/m2
22:14 35.1 °F 31.1 °F 30.06 in Calm   5 mph 85% 0.00 in 0 W/m2
22:19 35.1 °F 31.1 °F 30.06 in Calm   5 mph 85% 0.00 in 0 W/m2
22:24 35 °F 30.9 °F 30.05 in Calm   5 mph 85% 0.00 in 0 W/m2
22:29 34.8 °F 30.8 °F 30.06 in Calm   5 mph 85% 0.00 in 0 W/m2
22:34 34.7 °F 30.7 °F 30.06 in Calm   5 mph 85% 0.00 in 0 W/m2
22:39 34.6 °F 30.6 °F 30.06 in Calm     85% 0.00 in 0 W/m2
22:44 34.5 °F 30.5 °F 30.06 in Calm     85.3% 0.00 in 0 W/m2
22:49 34.4 °F 30.6 °F 30.06 in WNW 0.3 mph 5 mph 86% 0.00 in 0 W/m2
22:54 34.3 °F 30.5 °F 30.06 in WNW 0.8 mph 5 mph 86% 0.00 in 0 W/m2
22:59 34.2 °F 30.5 °F 30.06 in WNW 0.3 mph 5 mph 86% 0.00 in 0 W/m2
23:04 34.2 °F 30.6 °F 30.07 in WNW 0.5 mph 5 mph 86.5% 0.00 in 0 W/m2
23:09 34.1 °F 30.7 °F 30.08 in Calm     87% 0.00 in 0 W/m2
23:14 34 °F 30.6 °F 30.08 in Calm     87% 0.00 in 0 W/m2
23:19 33.9 °F 30.3 °F 30.08 in Calm     86.4% 0.00 in 0 W/m2
23:24 33.8 °F 30.4 °F 30.08 in WNW 0.3 mph 3 mph 87.2% 0.00 in 0 W/m2
23:29 33.7 °F 30.1 °F 30.07 in WNW 0.1 mph 3 mph 86.5% 0.00 in 0 W/m2
23:34 33.5 °F 30.1 °F 30.08 in Calm   3 mph 87% 0.00 in 0 W/m2
23:39 33.4 °F 30 °F 30.08 in WNW 0.1 mph 3 mph 87% 0.00 in 0 W/m2
23:44 33.4 °F 30 °F 30.08 in WNW 0.4 mph 3 mph 87% 0.00 in 0 W/m2
23:49 33.4 °F 30.2 °F 30.08 in Calm   3 mph 87.9% 0.00 in 0 W/m2
23:54 33.4 °F 30.2 °F 30.07 in WNW 0.4 mph 4 mph 88% 0.00 in 0 W/m2
23:59 33.4 °F 30.2 °F 30.07 in Calm   4 mph 88% 0.00 in 0 W/m2
Hartford County Weather
Compliments of Weather Underground - 2 mb